KDNV/DNV METAR and TAF weather

Enter ICAO airport designator
Station Type Date Time Source
KDNV METAR 2022/11/30 09:55 UTC NOAA

KDNV 300955Z AUTO 28019G25KT 10SM CLR M02/M07 A2993 RMK AO2 T10251070


Station Type Date Time Source
KDNV Decoded METAR 2022/11/30 09:55 UTC NOAA

Danville, Vermilion County Airport, IL, United States (KDNV) 40-11-58N 087-35-44W
Nov 30, 2022 - 04:55 AM EST / 2022.11.30 0955 UTC
Wind: from the W (280 degrees) at 22 MPH (19 KT) gusting to 29 MPH (25 KT):0
Visibility: 10 mile(s):0
Sky conditions: clear
Temperature: 27.5 F (-2.5 C)
Windchill: 14 F (-10 C):1
Dew Point: 19.4 F (-7.0 C)
Relative Humidity: 71%
Pressure (altimeter): 29.93 in. Hg (1013 hPa)
ob: KDNV 300955Z AUTO 28019G25KT 10SM CLR M02/M07 A2993 RMK AO2 T10251070
cycle: 10

Station Type Date Time Source
KDNV TAF UTC NOAA

Error!

Example: see airport list